createdAt,value
2019-01-14T00:00:58.216Z,77.98
2019-01-14T00:03:27.669Z,78.18
2019-01-14T00:05:57.051Z,78.73
2019-01-14T00:08:26.707Z,79.08
2019-01-14T00:10:56.187Z,80.13
2019-01-14T00:13:25.658Z,79.83
2019-01-14T00:15:55.099Z,79.06
2019-01-14T00:18:24.499Z,79.10
2019-01-14T00:20:53.864Z,78.85
2019-01-14T00:23:23.340Z,80.49
2019-01-14T00:25:52.766Z,81.40
2019-01-14T00:28:22.118Z,81.45
2019-01-14T00:30:51.531Z,80.81
2019-01-14T00:33:20.878Z,80.09
2019-01-14T00:35:50.279Z,79.38
2019-01-14T00:38:19.797Z,79.42
2019-01-14T00:40:49.178Z,79.57
2019-01-14T00:43:18.692Z,79.49
2019-01-14T00:45:48.063Z,78.69
2019-01-14T00:48:17.450Z,78.72
2019-01-14T00:50:46.810Z,78.90
2019-01-14T00:53:16.223Z,79.22
2019-01-14T00:55:45.615Z,79.48
2019-01-14T00:58:14.977Z,79.81
2019-01-14T01:00:44.380Z,79.74
2019-01-14T01:03:13.863Z,79.88
2019-01-14T01:05:43.259Z,79.85
2019-01-14T01:08:12.699Z,79.45
2019-01-14T01:10:42.086Z,79.47
2019-01-14T01:13:11.442Z,79.37
2019-01-14T01:15:40.854Z,79.32
2019-01-14T01:18:10.189Z,78.96
2019-01-14T01:20:40.359Z,78.53
2019-01-14T01:23:09.786Z,78.21
2019-01-14T01:25:39.184Z,78.13
2019-01-14T01:28:08.541Z,78.03
2019-01-14T01:30:37.884Z,77.70
2019-01-14T01:33:07.246Z,77.87
2019-01-14T01:35:36.707Z,78.20
2019-01-14T01:38:06.121Z,78.28
2019-01-14T01:40:35.517Z,78.80
2019-01-14T01:43:04.893Z,78.92
2019-01-14T01:45:34.288Z,78.61
2019-01-14T01:48:03.719Z,78.92
2019-01-14T01:50:33.101Z,78.83
2019-01-14T01:53:02.729Z,79.29
2019-01-14T01:55:32.216Z,79.30
2019-01-14T01:58:01.641Z,79.40
2019-01-14T02:00:31.021Z,79.86
2019-01-14T02:03:00.387Z,79.79
2019-01-14T02:05:29.753Z,79.80
2019-01-14T02:07:59.170Z,79.43
2019-01-14T02:10:28.569Z,79.47
2019-01-14T02:12:57.955Z,80.10
2019-01-14T02:15:27.332Z,79.99
2019-01-14T02:17:56.770Z,79.95
2019-01-14T02:20:26.147Z,80.15
2019-01-14T02:22:56.306Z,80.14
2019-01-14T02:25:25.739Z,80.05
2019-01-14T02:27:55.116Z,80.02
2019-01-14T02:30:25.028Z,80.14
2019-01-14T02:32:54.357Z,80.32
2019-01-14T02:35:23.699Z,80.04
2019-01-14T02:37:53.058Z,80.05
2019-01-14T02:40:23.096Z,79.90
2019-01-14T02:42:52.428Z,79.91
2019-01-14T02:45:21.767Z,79.80
2019-01-14T02:47:51.151Z,79.55
2019-01-14T02:50:20.485Z,79.62
2019-01-14T02:52:50.253Z,79.27
2019-01-14T02:55:19.621Z,79.27
2019-01-14T02:57:49.009Z,79.35
2019-01-14T03:00:27.552Z,79.51
2019-01-14T03:02:56.938Z,79.68
2019-01-14T03:05:26.290Z,79.74
2019-01-14T03:07:55.671Z,79.88
2019-01-14T03:10:25.078Z,80.10
2019-01-14T03:12:54.420Z,79.85
2019-01-14T03:15:23.824Z,80.08
2019-01-14T03:17:53.178Z,80.06
2019-01-14T03:20:22.554Z,79.93
2019-01-14T03:22:51.947Z,80.02
2019-01-14T03:25:21.337Z,79.94
2019-01-14T03:27:50.718Z,80.10
2019-01-14T03:30:20.876Z,79.91
2019-01-14T03:32:50.312Z,79.87
2019-01-14T03:35:19.721Z,80.03
2019-01-14T03:37:49.095Z,79.80
2019-01-14T03:40:19.088Z,79.61
2019-01-14T03:42:48.460Z,79.59
2019-01-14T03:45:18.016Z,79.70
2019-01-14T03:47:47.441Z,79.32
2019-01-14T03:50:24.086Z,79.06
2019-01-14T03:52:53.430Z,78.65
2019-01-14T03:55:22.796Z,78.54
2019-01-14T03:57:53.910Z,79.17
2019-01-14T04:00:23.228Z,78.75
2019-01-14T04:02:52.594Z,78.30
2019-01-14T04:05:21.976Z,77.97
2019-01-14T04:07:51.366Z,78.24
2019-01-14T04:10:20.783Z,78.20
2019-01-14T04:12:50.148Z,77.52
2019-01-14T04:15:20.450Z,77.87
2019-01-14T04:17:49.902Z,77.68
2019-01-14T04:20:20.132Z,77.95
2019-01-14T04:22:49.852Z,78.03
2019-01-14T04:25:19.355Z,77.77
2019-01-14T04:27:48.723Z,78.12
2019-01-14T04:30:21.805Z,77.98
2019-01-14T04:32:51.653Z,78.13
2019-01-14T04:35:22.052Z,77.95
2019-01-14T04:37:51.578Z,78.13
2019-01-14T04:40:20.941Z,78.37
2019-01-14T04:42:50.291Z,78.58
2019-01-14T04:45:19.685Z,78.58
2019-01-14T04:47:49.049Z,78.27
2019-01-14T04:50:21.569Z,78.27
2019-01-14T04:52:51.045Z,78.49
2019-01-14T04:55:20.639Z,78.51
2019-01-14T04:57:50.097Z,78.43
2019-01-14T05:00:25.031Z,78.44
2019-01-14T05:02:54.512Z,78.33
2019-01-14T05:05:24.295Z,78.75
2019-01-14T05:07:53.682Z,78.36
2019-01-14T05:10:23.639Z,78.45
2019-01-14T05:12:53.039Z,78.72
2019-01-14T05:15:22.364Z,79.12
2019-01-14T05:17:51.764Z,79.16
2019-01-14T05:20:23.456Z,79.47
2019-01-14T05:22:53.079Z,78.62
2019-01-14T05:25:23.138Z,78.31
2019-01-14T05:27:52.518Z,78.17
2019-01-14T05:30:22.132Z,77.91
2019-01-14T05:32:51.520Z,77.60
2019-01-14T05:35:21.069Z,77.69
2019-01-14T05:37:50.482Z,77.57
2019-01-14T05:40:24.832Z,77.46
2019-01-14T05:42:54.277Z,77.54
2019-01-14T05:45:23.743Z,77.72
2019-01-14T05:47:53.251Z,77.98
2019-01-14T05:50:22.659Z,78.56
2019-01-14T05:52:52.219Z,78.26
2019-01-14T05:55:21.678Z,77.90
2019-01-14T05:57:51.091Z,78.44
2019-01-14T06:00:37.953Z,78.08
2019-01-14T06:03:07.351Z,78.15
2019-01-14T06:05:36.746Z,78.28
2019-01-14T06:08:06.106Z,77.80
2019-01-14T06:10:35.552Z,77.49
2019-01-14T06:13:04.945Z,77.28
2019-01-14T06:15:34.404Z,76.88
2019-01-14T06:18:04.145Z,76.95
2019-01-14T06:20:33.952Z,76.28
2019-01-14T06:23:03.360Z,76.03
2019-01-14T06:25:32.872Z,75.87
2019-01-14T06:28:02.306Z,76.07
2019-01-14T06:30:32.045Z,76.54
2019-01-14T06:33:01.447Z,76.28
2019-01-14T06:35:31.029Z,76.49
2019-01-14T06:38:00.426Z,76.29
2019-01-14T06:40:29.823Z,76.09
2019-01-14T06:42:59.238Z,75.57
2019-01-14T06:45:28.610Z,75.28
2019-01-14T06:47:57.960Z,75.08
2019-01-14T06:50:27.303Z,75.07
2019-01-14T06:52:56.745Z,74.33
2019-01-14T06:55:26.190Z,73.73
2019-01-14T06:57:55.579Z,73.34
2019-01-14T07:00:27.257Z,72.55
2019-01-14T07:02:56.891Z,72.25
2019-01-14T07:05:26.299Z,72.35
2019-01-14T07:07:59.827Z,72.60
2019-01-14T07:10:29.197Z,72.13
2019-01-14T07:12:58.631Z,72.05
2019-01-14T07:15:27.993Z,71.39
2019-01-14T07:17:57.370Z,71.33
2019-01-14T07:20:26.541Z,70.97
2019-01-14T07:22:55.939Z,71.43
2019-01-14T07:25:25.320Z,71.20
2019-01-14T07:27:54.715Z,70.25
2019-01-14T07:30:24.286Z,69.71
2019-01-14T07:32:53.685Z,68.82
2019-01-14T07:35:23.150Z,68.79
2019-01-14T07:37:52.667Z,68.95
2019-01-14T07:40:22.069Z,68.32
2019-01-14T07:42:51.433Z,68.64
2019-01-14T07:45:21.009Z,68.13
2019-01-14T07:47:50.358Z,68.27
2019-01-14T07:50:20.136Z,67.85
2019-01-14T07:52:49.818Z,67.87
2019-01-14T07:55:19.209Z,67.29
2019-01-14T07:57:48.587Z,67.56
2019-01-14T08:00:23.245Z,67.86
2019-01-14T08:02:52.795Z,68.79
2019-01-14T08:05:22.195Z,68.47
2019-01-14T08:07:51.792Z,68.67
2019-01-14T08:10:21.201Z,68.49
2019-01-14T08:12:50.610Z,68.75
2019-01-14T08:15:21.673Z,68.62
2019-01-14T08:17:51.058Z,68.31
2019-01-14T08:20:20.553Z,68.30
2019-01-14T08:22:49.993Z,67.64
2019-01-14T08:25:19.392Z,68.43
2019-01-14T08:27:48.792Z,67.90
2019-01-14T08:30:22.850Z,68.05
2019-01-14T08:32:52.200Z,68.39
2019-01-14T08:35:21.794Z,67.94
2019-01-14T08:37:51.164Z,67.21
2019-01-14T08:40:20.661Z,67.05
2019-01-14T08:42:50.012Z,66.43
2019-01-14T08:45:19.505Z,64.86
2019-01-14T08:47:48.899Z,64.79
2019-01-14T08:50:22.098Z,64.58
2019-01-14T08:52:52.120Z,64.69
2019-01-14T08:55:21.596Z,64.35
2019-01-14T08:57:54.647Z,64.04
2019-01-14T09:00:23.514Z,64.10
2019-01-14T09:02:52.904Z,64.09
2019-01-14T09:05:22.398Z,63.06
2019-01-14T09:07:51.809Z,62.62
2019-01-14T09:10:26.182Z,63.39
2019-01-14T09:12:55.626Z,63.73
2019-01-14T09:15:25.018Z,63.86
2019-01-14T09:17:54.401Z,63.83
2019-01-14T09:20:25.160Z,63.43
2019-01-14T09:22:54.668Z,62.93
2019-01-14T09:25:24.059Z,62.75
2019-01-14T09:27:53.662Z,62.06
2019-01-14T09:30:26.883Z,62.45
2019-01-14T09:32:57.247Z,61.87
2019-01-14T09:35:26.702Z,61.40
2019-01-14T09:37:56.160Z,61.61
2019-01-14T09:40:25.981Z,61.40
2019-01-14T09:42:55.347Z,61.00
2019-01-14T09:45:24.704Z,60.54
2019-01-14T09:47:54.121Z,60.49
2019-01-14T09:50:23.499Z,60.68
2019-01-14T09:52:52.877Z,60.88
2019-01-14T09:55:22.278Z,61.02
2019-01-14T09:57:51.642Z,61.40
2019-01-14T10:00:21.190Z,61.59
2019-01-14T10:02:55.456Z,61.28
2019-01-14T10:05:21.679Z,61.12
2019-01-14T10:07:51.166Z,61.97
2019-01-14T10:10:21.261Z,61.75
2019-01-14T10:12:50.600Z,61.32
2019-01-14T10:15:27.957Z,61.77
2019-01-14T10:18:00.216Z,61.16
2019-01-14T10:20:29.611Z,61.20
2019-01-14T10:22:59.390Z,61.23
2019-01-14T10:25:28.806Z,60.82
2019-01-14T10:27:58.206Z,61.21
2019-01-14T10:30:27.595Z,61.37
2019-01-14T10:32:56.978Z,61.19
2019-01-14T10:35:26.376Z,61.17
2019-01-14T10:37:55.819Z,60.67
2019-01-14T10:40:25.195Z,60.76
2019-01-14T10:42:54.531Z,60.93
2019-01-14T10:45:24.581Z,60.94
2019-01-14T10:47:53.961Z,60.83
2019-01-14T10:50:23.322Z,61.66
2019-01-14T10:52:52.683Z,61.80
2019-01-14T10:55:22.075Z,62.42
2019-01-14T10:57:51.598Z,62.33
2019-01-14T11:00:23.376Z,62.25
2019-01-14T11:02:52.816Z,62.94
2019-01-14T11:05:25.740Z,63.29
2019-01-14T11:07:55.233Z,63.14
2019-01-14T11:10:24.649Z,63.12
2019-01-14T11:12:54.068Z,63.10
2019-01-14T11:15:23.804Z,62.83
2019-01-14T11:17:53.426Z,63.46
2019-01-14T11:20:25.730Z,63.49
2019-01-14T11:22:56.235Z,63.22
2019-01-14T11:25:25.666Z,62.86
2019-01-14T11:27:55.069Z,62.79
2019-01-14T11:30:30.280Z,62.95
2019-01-14T11:32:59.612Z,62.17
2019-01-14T11:35:29.031Z,62.18
2019-01-14T11:37:58.431Z,62.22
2019-01-14T11:40:33.514Z,62.33
2019-01-14T11:43:02.913Z,61.41
2019-01-14T11:45:32.235Z,60.89
2019-01-14T11:48:01.632Z,60.76
2019-01-14T11:50:30.978Z,60.34
2019-01-14T11:53:00.357Z,59.73
2019-01-14T11:55:29.814Z,59.92
2019-01-14T11:57:59.207Z,60.36
2019-01-14T12:00:36.275Z,60.84
2019-01-14T12:03:02.165Z,60.97
2019-01-14T12:05:31.584Z,61.01
2019-01-14T12:08:00.982Z,62.24
2019-01-14T12:10:30.345Z,62.18
2019-01-14T12:12:59.797Z,62.40
2019-01-14T12:15:29.475Z,62.81
2019-01-14T12:17:58.867Z,62.59
2019-01-14T12:20:28.281Z,62.59
2019-01-14T12:22:58.029Z,62.37
2019-01-14T12:25:27.517Z,62.76
2019-01-14T12:27:56.890Z,63.19
2019-01-14T12:30:32.609Z,63.44
2019-01-14T12:33:02.095Z,63.09
2019-01-14T12:35:31.483Z,62.31
2019-01-14T12:38:00.953Z,62.72
2019-01-14T12:40:30.335Z,63.19
2019-01-14T12:42:59.756Z,63.85
2019-01-14T12:45:29.517Z,64.37
2019-01-14T12:47:58.972Z,64.33
2019-01-14T12:50:28.365Z,64.50
2019-01-14T12:52:57.707Z,65.06
2019-01-14T12:55:27.104Z,64.72
2019-01-14T12:57:56.558Z,64.58
2019-01-14T13:00:27.574Z,64.54
2019-01-14T13:02:58.497Z,64.28
2019-01-14T13:05:30.178Z,65.04
2019-01-14T13:07:59.735Z,64.99
2019-01-14T13:10:29.105Z,65.45
2019-01-14T13:12:58.673Z,65.05
2019-01-14T13:15:29.477Z,64.79
2019-01-14T13:18:51.220Z,64.65
2019-01-14T13:21:20.968Z,64.57
2019-01-14T13:23:50.508Z,65.39
2019-01-14T13:26:20.097Z,65.45
2019-01-14T13:28:49.521Z,65.41
2019-01-14T13:31:18.921Z,65.20
2019-01-14T13:33:48.338Z,65.58
2019-01-14T13:36:17.692Z,65.26
2019-01-14T13:38:47.077Z,65.57
2019-01-14T13:41:16.444Z,65.29
2019-01-14T13:43:45.828Z,66.63
2019-01-14T13:46:15.202Z,68.19
2019-01-14T13:48:44.568Z,69.44
2019-01-14T13:51:13.974Z,70.04
2019-01-14T13:53:43.370Z,70.32
2019-01-14T13:56:12.753Z,70.44
2019-01-14T13:58:42.153Z,71.05
2019-01-14T14:01:11.624Z,71.15
2019-01-14T14:03:41.083Z,72.01
2019-01-14T14:06:10.455Z,72.61
2019-01-14T14:08:39.831Z,72.42
2019-01-14T14:11:09.213Z,72.68
2019-01-14T14:13:38.642Z,72.57
2019-01-14T14:16:07.967Z,73.18
2019-01-14T14:18:37.330Z,72.94
2019-01-14T14:21:07.126Z,72.72
2019-01-14T14:23:36.515Z,72.95
2019-01-14T14:26:05.912Z,72.70
2019-01-14T14:28:35.434Z,72.64
2019-01-14T14:31:04.797Z,72.93
2019-01-14T14:33:34.186Z,72.54
2019-01-14T14:36:03.591Z,73.11
2019-01-14T14:38:33.154Z,73.18
2019-01-14T14:41:02.592Z,73.73
2019-01-14T14:43:31.925Z,74.37
2019-01-14T14:46:01.315Z,75.53
2019-01-14T14:48:30.755Z,75.69
2019-01-14T14:51:00.119Z,76.02
2019-01-14T14:53:30.052Z,76.27
2019-01-14T14:55:59.533Z,76.04
2019-01-14T14:58:28.968Z,75.99
2019-01-14T15:00:58.385Z,76.56
2019-01-14T15:03:27.774Z,76.92
2019-01-14T15:05:57.334Z,77.41
2019-01-14T15:08:26.759Z,77.65
2019-01-14T15:10:56.195Z,77.85
2019-01-14T15:13:25.578Z,77.72
2019-01-14T15:15:54.978Z,77.09
2019-01-14T15:18:24.345Z,76.88
2019-01-14T15:20:53.731Z,76.91
2019-01-14T15:23:23.124Z,76.73
2019-01-14T15:25:52.570Z,77.27
2019-01-14T15:28:21.936Z,77.49
2019-01-14T15:30:51.302Z,77.83
2019-01-14T15:33:20.685Z,78.25
2019-01-14T15:35:50.018Z,78.43
2019-01-14T15:38:19.406Z,78.29
2019-01-14T15:40:48.805Z,78.35
2019-01-14T15:43:18.199Z,78.19
2019-01-14T15:45:47.692Z,78.28
2019-01-14T15:48:17.135Z,77.95
2019-01-14T15:50:46.602Z,78.04
2019-01-14T15:53:15.987Z,77.65
2019-01-14T15:55:45.461Z,77.89
2019-01-14T15:58:14.883Z,78.03
2019-01-14T16:00:44.291Z,77.79
2019-01-14T16:03:13.723Z,77.97
2019-01-14T16:05:43.131Z,78.25
2019-01-14T16:08:12.551Z,77.81
2019-01-14T16:10:41.933Z,77.99
2019-01-14T16:13:11.308Z,77.31
2019-01-14T16:15:40.755Z,77.36
2019-01-14T16:18:10.157Z,76.96
2019-01-14T16:20:39.527Z,76.45
2019-01-14T16:23:08.900Z,76.18
2019-01-14T16:25:38.283Z,75.96
2019-01-14T16:28:09.030Z,76.05
2019-01-14T16:30:38.398Z,76.46
2019-01-14T16:33:07.779Z,76.59
2019-01-14T16:35:37.205Z,76.45
2019-01-14T16:38:06.600Z,76.45
2019-01-14T16:40:35.947Z,76.30
2019-01-14T16:43:05.369Z,76.44
2019-01-14T17:29:50.889Z,82.24
2019-01-14T17:32:20.260Z,82.26
2019-01-14T17:34:49.654Z,81.57
2019-01-14T17:37:19.131Z,80.67
2019-01-14T17:39:48.601Z,79.89
2019-01-14T17:42:18.106Z,79.71
2019-01-14T17:44:47.537Z,79.43
2019-01-14T17:47:16.955Z,78.97
2019-01-14T17:49:46.968Z,78.75
2019-01-14T17:52:16.449Z,78.41
2019-01-14T17:54:45.882Z,78.36
2019-01-14T17:58:16.809Z,78.10
2019-01-14T18:00:46.255Z,78.37
2019-01-14T18:05:14.523Z,78.25
2019-01-14T18:09:27.627Z,78.18
2019-01-14T18:11:57.006Z,78.21
2019-01-14T18:14:26.375Z,78.47
2019-01-14T18:16:55.730Z,78.45
2019-01-14T18:19:25.136Z,78.75
2019-01-14T18:21:54.530Z,80.01
2019-01-14T18:24:23.954Z,80.71
2019-01-14T18:26:53.404Z,80.54
2019-01-14T18:29:22.866Z,79.95
2019-01-14T18:31:52.297Z,79.45
2019-01-14T18:34:21.736Z,79.31
2019-01-14T18:36:54.618Z,78.89
2019-01-14T18:39:24.063Z,78.91
2019-01-14T18:41:53.523Z,78.38
2019-01-14T18:44:23.162Z,78.47
2019-01-14T18:46:52.547Z,78.57
2019-01-14T18:49:21.987Z,78.81
2019-01-14T18:51:52.487Z,79.04
2019-01-14T18:54:22.263Z,78.94
2019-01-14T18:56:51.685Z,78.84
2019-01-14T18:59:21.427Z,79.77
2019-01-14T19:01:50.805Z,80.82
2019-01-14T19:04:20.241Z,79.96
2019-01-14T19:06:49.652Z,79.21
2019-01-14T19:09:19.082Z,79.05
2019-01-14T19:11:48.680Z,78.42
2019-01-14T19:14:18.093Z,78.35
2019-01-14T19:16:47.581Z,78.10
2019-01-14T19:19:16.995Z,77.70
2019-01-14T19:21:46.443Z,77.50
2019-01-14T19:24:15.852Z,77.56
2019-01-14T19:26:46.105Z,77.69
2019-01-14T19:29:16.588Z,77.21
2019-01-14T19:31:45.997Z,76.78
2019-01-14T19:34:15.455Z,76.45
2019-01-14T19:36:44.834Z,75.77
2019-01-14T19:39:14.207Z,75.11
2019-01-14T19:41:43.549Z,75.38
2019-01-14T19:44:12.958Z,75.50
2019-01-14T19:46:42.478Z,75.46
2019-01-14T19:49:11.801Z,75.03
2019-01-14T19:51:41.183Z,75.29
2019-01-14T19:54:10.631Z,75.29
2019-01-14T19:56:40.041Z,75.14
2019-01-14T19:59:09.419Z,74.89
2019-01-14T20:01:38.832Z,74.67
2019-01-14T20:04:08.209Z,74.25
2019-01-14T20:06:37.535Z,74.26
2019-01-14T20:09:07.950Z,73.93
2019-01-14T20:11:37.331Z,74.04
2019-01-14T20:14:06.795Z,73.55
2019-01-14T20:16:36.208Z,73.83
2019-01-14T20:19:05.802Z,73.51
2019-01-14T20:21:35.221Z,73.53
2019-01-14T20:24:04.603Z,73.38
2019-01-14T20:26:33.963Z,73.36
2019-01-14T20:29:03.325Z,73.55
2019-01-14T20:31:32.792Z,73.83
2019-01-14T20:34:02.473Z,74.08
2019-01-14T20:36:31.791Z,73.95
2019-01-14T20:39:01.196Z,73.98
2019-01-14T20:41:30.608Z,74.09
2019-01-14T21:11:00.273Z,76.44
2019-01-14T21:13:29.865Z,76.60
2019-01-14T21:16:02.894Z,76.47
2019-01-14T21:18:30.663Z,76.35
2019-01-14T21:21:00.171Z,76.23
2019-01-14T21:23:29.643Z,76.29
2019-01-14T21:25:59.150Z,75.31
2019-01-14T21:28:28.605Z,75.22
2019-01-14T21:30:58.139Z,74.96
2019-01-14T21:33:27.600Z,73.98
2019-01-14T21:35:57.249Z,72.56
2019-01-14T21:38:26.728Z,71.81
2019-01-14T21:40:56.346Z,71.37
2019-01-14T21:43:25.847Z,70.91
2019-01-14T21:45:55.485Z,69.90
2019-01-14T21:48:24.949Z,68.37
2019-01-14T21:50:54.384Z,67.08
2019-01-14T21:53:23.898Z,67.34
2019-01-14T21:55:53.397Z,66.01
2019-01-14T21:58:22.888Z,66.19
2019-01-14T22:00:52.383Z,66.21
2019-01-14T22:03:21.912Z,66.31
2019-01-14T22:05:51.465Z,65.24
2019-01-14T22:08:20.945Z,64.57
2019-01-14T22:10:50.465Z,64.69
2019-01-14T22:13:19.974Z,63.78
2019-01-14T22:15:49.488Z,63.78
2019-01-14T22:18:19.006Z,63.42
2019-01-14T22:20:48.488Z,63.54
2019-01-14T22:23:17.949Z,63.81
2019-01-14T22:25:47.807Z,63.96
2019-01-14T22:28:17.327Z,63.83
2019-01-14T22:30:46.785Z,63.49
2019-01-14T22:33:16.235Z,63.67
2019-01-14T22:35:45.754Z,63.50
2019-01-14T22:38:15.192Z,63.52
2019-01-14T22:40:44.689Z,63.76
2019-01-14T22:43:14.123Z,63.63
2019-01-14T22:45:43.658Z,63.70
2019-01-14T22:48:13.091Z,63.71
2019-01-14T22:50:42.531Z,63.32
2019-01-14T22:53:11.995Z,62.94
2019-01-14T22:55:41.388Z,63.14
2019-01-14T22:58:10.769Z,63.33
2019-01-14T23:01:16.824Z,62.96
2019-01-14T23:03:50.844Z,62.55
2019-01-14T23:06:20.343Z,62.75
2019-01-14T23:08:49.695Z,62.01
2019-01-14T23:11:19.050Z,61.99
2019-01-14T23:13:48.420Z,61.42
2019-01-14T23:16:17.827Z,61.19
2019-01-14T23:18:47.186Z,61.27
2019-01-14T23:21:16.529Z,60.74
2019-01-14T23:23:45.899Z,61.24
2019-01-14T23:26:15.263Z,61.04
2019-01-14T23:28:44.582Z,61.12
2019-01-14T23:31:13.934Z,61.07
2019-01-14T23:33:43.298Z,61.01
2019-01-14T23:36:12.682Z,61.55
2019-01-14T23:38:42.016Z,61.99
2019-01-14T23:41:11.392Z,62.44
2019-01-14T23:43:40.842Z,62.66
2019-01-14T23:46:10.215Z,62.82
2019-01-14T23:48:39.614Z,62.90
2019-01-14T23:51:09.009Z,63.05
2019-01-14T23:53:38.404Z,63.36
2019-01-14T23:56:07.808Z,62.89
2019-01-14T23:58:37.238Z,62.79
